»·PEaware :: AAY2928 KABQ-KELP

AAY2928 :: KABQ-KELP

FLIGHT INFORMATION

Flight Status: Arrived
Operator:
Allegiant Air
More flights by this operator :: More flights under this callsign
Pilot: Anonymous A. (29301)
Aircraft: AIRBUS A320
(A320)
More flights by this aircraft type
Origin: KABQ Albuquerque Intl Sunport
United States
Destination: KELP El Paso Intl
United States
More flights between these airports :: More routes between these airports
Route: +BOSQE3 ONM TCS SLNKK WAZKO1
File this flight plan on PilotEdge
Remarks:
Altitude:
(Current/Filed)
31,000ft
Speed:
(Current/Filed)
270kts
Departed: 03-May-20 11:28 AM
Arrived: 03-May-20 12:06 PM
Distance/Time
Traveled:
195nm/0:38
Distance/Time
To Go:
Arrived

Flight Plot

Page will automatically refresh every two minutes.

Flight plan parsing failed; only flown route is shown


Map Options




Map Legend


Flown Route
Filed Route
Departure Airport
Arrival Airport
Navaid (VOR, NDB)
Fix

Horizontal Profiles

Position Reports

Time Latitude Longitude Heading Altitude Ground
Speed
03-May-20 11:03 35.046868 -106.614897 6 5321ft 0kts
03-May-20 11:04 35.046868 -106.614897 6 5321ft 0kts
03-May-20 11:05 35.046868 -106.614897 6 5321ft 0kts
03-May-20 11:06 35.046868 -106.614897 6 5321ft 0kts
03-May-20 11:07 35.046868 -106.614897 6 5321ft 0kts
03-May-20 11:08 35.046868 -106.614897 6 5321ft 0kts
03-May-20 11:09 35.046868 -106.614897 6 5321ft 0kts
03-May-20 11:10 35.046868 -106.614897 6 5321ft 0kts
03-May-20 11:11 35.046867 -106.614897 6 5321ft 0kts
03-May-20 11:12 35.046668 -106.614928 6 5321ft 2kts
03-May-20 11:13 35.046076 -106.615019 7 5320ft 2kts
03-May-20 11:14 35.045578 -106.615357 70 5320ft 2kts
03-May-20 11:15 35.045552 -106.615598 91 5319ft 0kts
03-May-20 11:16 35.045552 -106.615598 91 5319ft 0kts
03-May-20 11:17 35.045552 -106.615598 91 5319ft 0kts
03-May-20 11:18 35.045551 -106.615570 91 5319ft 0kts
03-May-20 11:19 35.045550 -106.615527 91 5319ft 0kts
03-May-20 11:20 35.045543 -106.615211 91 5320ft 8kts
03-May-20 11:21 35.042438 -106.613283 91 5320ft 13kts
03-May-20 11:22 35.042419 -106.608804 90 5322ft 15kts
03-May-20 11:23 35.042415 -106.608196 90 5323ft 0kts
03-May-20 11:24 35.042407 -106.607424 90 5323ft 1kts
03-May-20 11:25 35.042397 -106.606873 91 5323ft 0kts
03-May-20 11:26 35.042311 -106.606598 172 5323ft 4kts
03-May-20 11:27 35.021788 -106.630733 222 6183ft 176kts
03-May-20 11:28 34.981123 -106.676178 223 8689ft 232kts
03-May-20 11:29 34.925786 -106.738929 219 9086ft 282kts
03-May-20 11:30 34.856159 -106.793431 197 11346ft 321kts
03-May-20 11:31 34.759861 -106.790518 178 13965ft 360kts
03-May-20 11:32 34.658196 -106.782362 178 16818ft 375kts
03-May-20 11:33 34.552758 -106.774116 178 19373ft 389kts
03-May-20 11:34 34.446000 -106.781925 198 20199ft 386kts
03-May-20 11:35 34.344332 -106.818625 200 20213ft 373kts
03-May-20 11:36 34.244788 -106.864737 203 21693ft 396kts
03-May-20 11:37 34.140983 -106.913355 203 23451ft 404kts
03-May-20 11:38 34.036239 -106.962324 203 24838ft 414kts
03-May-20 11:39 33.928920 -107.012353 204 26070ft 420kts
03-May-20 11:40 33.820869 -107.062544 204 26699ft 411kts
03-May-20 11:41 33.714896 -107.111674 204 26196ft 414kts
03-May-20 11:42 33.607165 -107.161494 204 26204ft 411kts
03-May-20 11:43 33.501412 -107.210242 204 26204ft 402kts
03-May-20 11:44 33.398931 -107.257393 204 26200ft 406kts
03-May-20 11:45 33.284350 -107.301074 194 26192ft 460kts
03-May-20 11:46 33.156098 -107.332125 194 26194ft 483kts
03-May-20 11:47 33.029750 -107.362202 190 26201ft 457kts
03-May-20 11:48 32.905443 -107.334771 152 26199ft 475kts
03-May-20 11:49 32.798217 -107.241212 145 26198ft 487kts
03-May-20 11:50 32.689329 -107.144293 145 26125ft 494kts
03-May-20 11:51 32.578215 -107.045809 145 25443ft 499kts
03-May-20 11:52 32.471024 -106.952495 147 24552ft 456kts
03-May-20 11:53 32.371196 -106.870304 147 22906ft 428kts
03-May-20 11:54 32.275841 -106.791620 146 20974ft 408kts
03-May-20 11:55 32.184857 -106.716665 147 18828ft 388kts
03-May-20 11:56 32.098425 -106.653315 160 15544ft 352kts
03-May-20 11:57 32.028911 -106.585834 108 12157ft 341kts
03-May-20 11:58 32.001792 -106.482827 108 9353ft 313kts
03-May-20 11:59 31.977632 -106.389168 108 8975ft 280kts
03-May-20 12:00 31.935481 -106.310290 162 7888ft 270kts
03-May-20 12:01 31.866802 -106.296726 175 6069ft 232kts
03-May-20 12:02 31.811031 -106.294496 212 5163ft 160kts
03-May-20 12:03 31.799690 -106.336525 269 4329ft 135kts
03-May-20 12:04 31.801414 -106.375962 273 3947ft 57kts
03-May-20 12:05 31.800116 -106.381484 223 3942ft 10kts
03-May-20 12:06 31.799904 -106.386474 270 3935ft 19kts
03-May-20 12:07 31.799570 -106.392165 264 3928ft 8kts

Navigation Log

Ident Type
Flight plan parsing failed, navigation log unavailable